sensor_id;sensor_type;location;lat;lon;timestamp;pressure;altitude;pressure_sealevel;temperature;humidity
70968;BME280;58629;48.808;8.820;2023-10-09T00:00:24;97774.69;;;9.31;100.00
70968;BME280;58629;48.808;8.820;2023-10-09T00:03:05;97777.34;;;9.28;100.00
70968;BME280;58629;48.808;8.820;2023-10-09T00:05:32;97765.25;;;9.30;100.00
70968;BME280;58629;48.808;8.820;2023-10-09T00:08:16;97771.28;;;9.27;100.00
70968;BME280;58629;48.808;8.820;2023-10-09T00:10:44;97766.00;;;9.27;100.00
70968;BME280;58629;48.808;8.820;2023-10-09T00:13:14;97769.44;;;9.17;100.00
70968;BME280;58629;48.808;8.820;2023-10-09T00:15:39;97769.06;;;9.19;100.00
70968;BME280;58629;48.808;8.820;2023-10-09T00:18:06;97766.78;;;9.17;100.00
70968;BME280;58629;48.808;8.820;2023-10-09T00:20:37;97763.41;;;9.17;100.00
70968;BME280;58629;48.808;8.820;2023-10-09T00:23:07;97763.78;;;9.15;100.00
70968;BME280;58629;48.808;8.820;2023-10-09T00:25:38;97757.75;;;9.15;100.00
70968;BME280;58629;48.808;8.820;2023-10-09T00:28:10;97763.03;;;9.08;100.00
70968;BME280;58629;48.808;8.820;2023-10-09T00:30:41;97764.91;;;9.07;100.00
70968;BME280;58629;48.808;8.820;2023-10-09T00:33:06;97763.41;;;9.06;100.00
70968;BME280;58629;48.808;8.820;2023-10-09T00:35:37;97752.88;;;9.03;100.00
70968;BME280;58629;48.808;8.820;2023-10-09T00:38:08;97757.38;;;9.02;100.00
70968;BME280;58629;48.808;8.820;2023-10-09T00:40:54;97753.25;;;9.01;100.00
70968;BME280;58629;48.808;8.820;2023-10-09T00:43:29;97748.69;;;9.02;100.00
70968;BME280;58629;48.808;8.820;2023-10-09T00:45:56;97749.47;;;9.02;100.00
70968;BME280;58629;48.808;8.820;2023-10-09T00:48:27;97744.19;;;9.02;100.00
70968;BME280;58629;48.808;8.820;2023-10-09T00:50:59;97743.81;;;9.00;100.00
70968;BME280;58629;48.808;8.820;2023-10-09T00:53:27;97740.41;;;9.00;100.00
70968;BME280;58629;48.808;8.820;2023-10-09T00:56:01;97740.78;;;8.98;100.00
70968;BME280;58629;48.808;8.820;2023-10-09T00:58:47;97732.13;;;9.01;100.00
70968;BME280;58629;48.808;8.820;2023-10-09T01:01:14;97735.50;;;8.98;100.00
70968;BME280;58629;48.808;8.820;2023-10-09T01:03:41;97736.28;;;8.95;100.00
70968;BME280;58629;48.808;8.820;2023-10-09T01:06:07;97732.13;;;8.91;100.00
70968;BME280;58629;48.808;8.820;2023-10-09T01:08:35;97731.75;;;8.89;100.00
70968;BME280;58629;48.808;8.820;2023-10-09T01:13:39;97726.47;;;8.92;100.00
70968;BME280;58629;48.808;8.820;2023-10-09T01:16:22;97714.00;;;8.96;100.00
70968;BME280;58629;48.808;8.820;2023-10-09T01:18:53;97717.00;;;8.98;100.00
70968;BME280;58629;48.808;8.820;2023-10-09T01:21:20;97707.59;;;8.97;100.00
70968;BME280;58629;48.808;8.820;2023-10-09T01:23:54;97707.22;;;8.99;100.00
70968;BME280;58629;48.808;8.820;2023-10-09T01:26:29;97703.81;;;8.95;100.00
70968;BME280;58629;48.808;8.820;2023-10-09T01:29:05;97705.34;;;8.82;100.00
70968;BME280;58629;48.808;8.820;2023-10-09T01:31:36;97710.63;;;8.82;100.00
70968;BME280;58629;48.808;8.820;2023-10-09T01:34:03;97706.09;;;8.82;100.00
70968;BME280;58629;48.808;8.820;2023-10-09T01:36:36;97704.97;;;8.83;100.00
70968;BME280;58629;48.808;8.820;2023-10-09T01:39:04;97706.88;;;8.83;100.00
70968;BME280;58629;48.808;8.820;2023-10-09T01:41:51;97706.50;;;8.77;100.00
70968;BME280;58629;48.808;8.820;2023-10-09T01:44:29;97697.44;;;8.74;100.00
70968;BME280;58629;48.808;8.820;2023-10-09T01:46:56;97699.31;;;8.81;100.00
70968;BME280;58629;48.808;8.820;2023-10-09T01:49:23;97700.44;;;8.84;100.00
70968;BME280;58629;48.808;8.820;2023-10-09T01:51:56;97698.56;;;8.84;100.00
70968;BME280;58629;48.808;8.820;2023-10-09T01:54:25;97700.06;;;8.85;100.00
70968;BME280;58629;48.808;8.820;2023-10-09T01:57:02;97701.94;;;8.88;100.00
70968;BME280;58629;48.808;8.820;2023-10-09T01:59:31;97694.03;;;8.88;100.00
70968;BME280;58629;48.808;8.820;2023-10-09T02:01:57;97692.91;;;8.89;100.00
70968;BME280;58629;48.808;8.820;2023-10-09T02:04:25;97694.75;;;8.92;100.00
70968;BME280;58629;48.808;8.820;2023-10-09T02:06:51;97687.25;;;8.87;100.00
70968;BME280;58629;48.808;8.820;2023-10-09T02:09:18;97684.97;;;8.86;100.00
70968;BME280;58629;48.808;8.820;2023-10-09T02:11:48;97678.56;;;8.87;100.00
70968;BME280;58629;48.808;8.820;2023-10-09T02:14:13;97678.94;;;8.85;100.00
70968;BME280;58629;48.808;8.820;2023-10-09T02:16:48;97680.06;;;8.84;100.00
70968;BME280;58629;48.808;8.820;2023-10-09T02:19:33;97673.28;;;8.87;100.00
70968;BME280;58629;48.808;8.820;2023-10-09T02:22:03;97672.88;;;8.88;100.00
70968;BME280;58629;48.808;8.820;2023-10-09T02:24:43;97668.38;;;8.89;100.00
70968;BME280;58629;48.808;8.820;2023-10-09T02:27:20;97673.25;;;8.90;100.00
70968;BME280;58629;48.808;8.820;2023-10-09T02:30:07;97674.78;;;8.95;100.00
70968;BME280;58629;48.808;8.820;2023-10-09T02:32:55;97675.16;;;8.97;100.00
70968;BME280;58629;48.808;8.820;2023-10-09T02:35:32;97676.28;;;8.99;100.00
70968;BME280;58629;48.808;8.820;2023-10-09T02:38:05;97676.28;;;8.99;100.00
70968;BME280;58629;48.808;8.820;2023-10-09T02:40:35;97669.44;;;9.02;100.00
70968;BME280;58629;48.808;8.820;2023-10-09T02:43:21;97669.47;;;8.98;100.00
70968;BME280;58629;48.808;8.820;2023-10-09T02:45:50;97662.31;;;8.99;100.00
70968;BME280;58629;48.808;8.820;2023-10-09T02:48:18;97667.56;;;9.02;100.00
70968;BME280;58629;48.808;8.820;2023-10-09T02:50:53;97657.38;;;9.04;100.00
70968;BME280;58629;48.808;8.820;2023-10-09T02:53:19;97652.47;;;9.06;100.00
70968;BME280;58629;48.808;8.820;2023-10-09T02:55:53;97663.78;;;9.10;100.00
70968;BME280;58629;48.808;8.820;2023-10-09T02:58:37;97657.69;;;9.20;100.00
70968;BME280;58629;48.808;8.820;2023-10-09T03:01:03;97662.94;;;9.27;100.00
70968;BME280;58629;48.808;8.820;2023-10-09T03:03:36;97657.66;;;9.34;100.00
70968;BME280;58629;48.808;8.820;2023-10-09T03:06:04;97646.66;;;9.39;100.00
70968;BME280;58629;48.808;8.820;2023-10-09T03:08:37;97655.75;;;9.31;100.00
70968;BME280;58629;48.808;8.820;2023-10-09T03:11:08;97651.25;;;9.21;100.00
70968;BME280;58629;48.808;8.820;2023-10-09T03:13:40;97651.25;;;9.21;100.00
70968;BME280;58629;48.808;8.820;2023-10-09T03:16:08;97644.88;;;9.15;100.00
70968;BME280;58629;48.808;8.820;2023-10-09T03:18:37;97635.09;;;9.09;100.00
70968;BME280;58629;48.808;8.820;2023-10-09T03:23:36;97640.75;;;9.07;100.00
70968;BME280;58629;48.808;8.820;2023-10-09T03:26:02;97631.69;;;9.08;100.00
70968;BME280;58629;48.808;8.820;2023-10-09T03:28:28;97637.72;;;9.05;100.00
70968;BME280;58629;48.808;8.820;2023-10-09T03:30:54;97634.38;;;9.01;100.00
70968;BME280;58629;48.808;8.820;2023-10-09T03:33:19;97625.31;;;8.99;100.00
70968;BME280;58629;48.808;8.820;2023-10-09T03:35:45;97624.94;;;9.00;100.00
70968;BME280;58629;48.808;8.820;2023-10-09T03:38:10;97621.88;;;9.05;100.00
70968;BME280;58629;48.808;8.820;2023-10-09T03:40:43;97622.28;;;9.04;100.00
70968;BME280;58629;48.808;8.820;2023-10-09T03:43:10;97621.91;;;9.09;100.00
70968;BME280;58629;48.808;8.820;2023-10-09T03:45:36;97624.50;;;9.16;100.00
70968;BME280;58629;48.808;8.820;2023-10-09T03:48:04;97616.56;;;9.23;100.00
70968;BME280;58629;48.808;8.820;2023-10-09T03:50:37;97615.78;;;9.22;100.00
70968;BME280;58629;48.808;8.820;2023-10-09T03:53:06;97616.91;;;9.25;100.00
70968;BME280;58629;48.808;8.820;2023-10-09T03:55:37;97621.47;;;9.21;100.00
70968;BME280;58629;48.808;8.820;2023-10-09T03:58:08;97625.66;;;9.08;100.00
70968;BME280;58629;48.808;8.820;2023-10-09T04:00:37;97633.59;;;9.04;100.00
70968;BME280;58629;48.808;8.820;2023-10-09T04:03:14;97629.81;;;9.02;100.00
70968;BME280;58629;48.808;8.820;2023-10-09T04:05:41;97639.66;;;9.01;100.00
70968;BME280;58629;48.808;8.820;2023-10-09T04:08:09;97623.78;;;9.05;100.00
70968;BME280;58629;48.808;8.820;2023-10-09T04:10:41;97623.41;;;9.06;100.00
70968;BME280;58629;48.808;8.820;2023-10-09T04:13:16;97616.97;;;9.11;100.00
70968;BME280;58629;48.808;8.820;2023-10-09T04:15:43;97626.00;;;9.13;100.00
70968;BME280;58629;48.808;8.820;2023-10-09T04:18:09;97621.09;;;9.19;100.00
70968;BME280;58629;48.808;8.820;2023-10-09T04:20:41;97625.59;;;9.22;100.00
70968;BME280;58629;48.808;8.820;2023-10-09T04:23:20;97627.16;;;9.12;100.00
70968;BME280;58629;48.808;8.820;2023-10-09T04:26:02;97630.19;;;9.11;100.00
70968;BME280;58629;48.808;8.820;2023-10-09T04:28:36;97636.63;;;9.06;100.00
70968;BME280;58629;48.808;8.820;2023-10-09T04:31:02;97631.69;;;9.08;100.00
70968;BME280;58629;48.808;8.820;2023-10-09T04:33:31;97629.81;;;9.09;100.00
70968;BME280;58629;48.808;8.820;2023-10-09T04:36:07;97634.72;;;9.03;100.00
70968;BME280;58629;48.808;8.820;2023-10-09T04:38:48;97629.88;;;8.95;100.00
70968;BME280;58629;48.808;8.820;2023-10-09T04:41:30;97635.91;;;8.95;100.00
70968;BME280;58629;48.808;8.820;2023-10-09T04:44:16;97639.66;;;9.01;100.00
70968;BME280;58629;48.808;8.820;2023-10-09T04:46:49;97640.38;;;9.05;100.00
70968;BME280;58629;48.808;8.820;2023-10-09T04:49:34;97635.41;;;9.25;100.00
70968;BME280;58629;48.808;8.820;2023-10-09T04:52:19;97637.47;;;9.61;100.00
70968;BME280;58629;48.808;8.820;2023-10-09T04:54:54;97636.94;;;9.88;100.00
70968;BME280;58629;48.808;8.820;2023-10-09T04:57:38;97631.47;;;10.09;100.00
70968;BME280;58629;48.808;8.820;2023-10-09T05:00:16;97627.19;;;10.29;100.00
70968;BME280;58629;48.808;8.820;2023-10-09T05:02:52;97638.56;;;10.26;100.00
70968;BME280;58629;48.808;8.820;2023-10-09T05:05:22;97635.78;;;10.43;100.00
70968;BME280;58629;48.808;8.820;2023-10-09T05:08:13;97631.78;;;10.62;100.00
70968;BME280;58629;48.808;8.820;2023-10-09T05:10:49;97635.78;;;10.81;100.00
70968;BME280;58629;48.808;8.820;2023-10-09T05:13:27;97634.16;;;10.90;100.00
70968;BME280;58629;48.808;8.820;2023-10-09T05:16:08;97631.00;;;11.02;100.00
70968;BME280;58629;48.808;8.820;2023-10-09T05:18:43;97640.72;;;11.12;100.00
70968;BME280;58629;48.808;8.820;2023-10-09T05:21:21;97634.59;;;11.15;100.00
70968;BME280;58629;48.808;8.820;2023-10-09T05:23:59;97636.91;;;11.13;100.00
70968;BME280;58629;48.808;8.820;2023-10-09T05:26:47;97634.25;;;11.13;100.00
70968;BME280;58629;48.808;8.820;2023-10-09T05:29:13;97632.28;;;11.21;100.00
70968;BME280;58629;48.808;8.820;2023-10-09T05:31:48;97645.97;;;11.16;100.00
70968;BME280;58629;48.808;8.820;2023-10-09T05:34:32;97642.66;;;11.08;100.00
70968;BME280;58629;48.808;8.820;2023-10-09T05:37:20;97635.00;;;11.14;100.00
70968;BME280;58629;48.808;8.820;2023-10-09T05:39:58;97640.31;;;11.14;99.58
70968;BME280;58629;48.808;8.820;2023-10-09T05:42:28;97644.69;;;10.94;97.46
70968;BME280;58629;48.808;8.820;2023-10-09T05:45:16;97648.50;;;10.93;97.07
70968;BME280;58629;48.808;8.820;2023-10-09T05:48:00;97646.56;;;10.97;100.00
70968;BME280;58629;48.808;8.820;2023-10-09T05:50:45;97649.91;;;11.04;100.00
70968;BME280;58629;48.808;8.820;2023-10-09T05:53:29;97647.25;;;11.04;100.00
70968;BME280;58629;48.808;8.820;2023-10-09T05:56:10;97643.78;;;11.07;100.00
70968;BME280;58629;48.808;8.820;2023-10-09T05:58:54;97640.81;;;11.02;99.78
70968;BME280;58629;48.808;8.820;2023-10-09T06:01:31;97643.63;;;10.91;96.67
70968;BME280;58629;48.808;8.820;2023-10-09T06:04:15;97638.19;;;11.02;100.00
70968;BME280;58629;48.808;8.820;2023-10-09T06:06:41;97640.38;;;11.10;100.00
70968;BME280;58629;48.808;8.820;2023-10-09T06:09:21;97640.41;;;11.07;98.35
70968;BME280;58629;48.808;8.820;2023-10-09T06:11:48;97634.25;;;11.13;97.18
70968;BME280;58629;48.808;8.820;2023-10-09T06:14:18;97639.19;;;11.15;100.00
70968;BME280;58629;48.808;8.820;2023-10-09T06:16:52;97640.94;;;11.25;98.96
70968;BME280;58629;48.808;8.820;2023-10-09T06:19:27;97640.50;;;11.30;98.65
70968;BME280;58629;48.808;8.820;2023-10-09T06:21:58;97644.16;;;11.40;97.74
70968;BME280;58629;48.808;8.820;2023-10-09T06:24:30;97642.63;;;11.42;97.32
70968;BME280;58629;48.808;8.820;2023-10-09T06:26:59;97645.69;;;11.37;96.22
70968;BME280;58629;48.808;8.820;2023-10-09T06:29:25;97643.38;;;11.43;96.77
70968;BME280;58629;48.808;8.820;2023-10-09T06:32:08;97647.81;;;11.49;96.46
70968;BME280;58629;48.808;8.820;2023-10-09T06:37:17;97654.94;;;11.56;96.00
70968;BME280;58629;48.808;8.820;2023-10-09T06:39:44;97659.78;;;11.61;95.91
70968;BME280;58629;48.808;8.820;2023-10-09T06:42:30;97660.78;;;11.74;96.61
70968;BME280;58629;48.808;8.820;2023-10-09T06:45:08;97655.53;;;11.97;98.55
70968;BME280;58629;48.808;8.820;2023-10-09T06:47:41;97661.78;;;12.10;96.77
70968;BME280;58629;48.808;8.820;2023-10-09T06:50:12;97667.56;;;12.28;95.51
70968;BME280;58629;48.808;8.820;2023-10-09T06:52:49;97668.25;;;12.32;93.00
70968;BME280;58629;48.808;8.820;2023-10-09T06:55:37;97666.53;;;12.45;96.44
70968;BME280;58629;48.808;8.820;2023-10-09T06:58:18;97666.69;;;12.58;95.59
70968;BME280;58629;48.808;8.820;2023-10-09T07:00:55;97657.78;;;12.68;95.45
70968;BME280;58629;48.808;8.820;2023-10-09T07:03:23;97666.41;;;12.75;94.61
70968;BME280;58629;48.808;8.820;2023-10-09T07:06:10;97657.81;;;12.87;93.17
70968;BME280;58629;48.808;8.820;2023-10-09T07:09:12;97659.13;;;12.99;92.76
70968;BME280;58629;48.808;8.820;2023-10-09T07:11:42;97660.03;;;13.12;91.85
70968;BME280;58629;48.808;8.820;2023-10-09T07:14:13;97658.66;;;13.24;90.63
70968;BME280;58629;48.808;8.820;2023-10-09T07:17:00;97657.97;;;13.20;88.26
70968;BME280;58629;48.808;8.820;2023-10-09T07:19:27;97667.75;;;13.26;86.71
70968;BME280;58629;48.808;8.820;2023-10-09T07:21:59;97663.03;;;13.34;89.62
70968;BME280;58629;48.808;8.820;2023-10-09T07:24:31;97662.13;;;13.40;89.18
70968;BME280;58629;48.808;8.820;2023-10-09T07:27:08;97663.97;;;13.43;87.09
70968;BME280;58629;48.808;8.820;2023-10-09T07:29:37;97657.25;;;13.55;89.07
70968;BME280;58629;48.808;8.820;2023-10-09T07:32:16;97667.69;;;13.65;88.57
70968;BME280;58629;48.808;8.820;2023-10-09T07:34:48;97660.72;;;13.71;88.26
70968;BME280;58629;48.808;8.820;2023-10-09T07:37:23;97668.13;;;13.80;87.74
70968;BME280;58629;48.808;8.820;2023-10-09T07:39:52;97666.41;;;13.89;87.65
70968;BME280;58629;48.808;8.820;2023-10-09T07:42:24;97658.56;;;13.99;86.87
70968;BME280;58629;48.808;8.820;2023-10-09T07:45:02;97658.44;;;14.06;86.73
70968;BME280;58629;48.808;8.820;2023-10-09T07:47:50;97660.84;;;14.16;86.06
70968;BME280;58629;48.808;8.820;2023-10-09T07:50:25;97663.00;;;14.21;85.29
70968;BME280;58629;48.808;8.820;2023-10-09T07:52:56;97664.78;;;14.28;85.27
70968;BME280;58629;48.808;8.820;2023-10-09T07:55:40;97671.03;;;14.37;84.97
70968;BME280;58629;48.808;8.820;2023-10-09T07:58:11;97665.84;;;14.46;84.61
70968;BME280;58629;48.808;8.820;2023-10-09T08:00:37;97668.41;;;14.50;84.39
70968;BME280;58629;48.808;8.820;2023-10-09T08:03:22;97666.16;;;14.48;82.58
70968;BME280;58629;48.808;8.820;2023-10-09T08:05:51;97675.06;;;14.58;83.46
70968;BME280;58629;48.808;8.820;2023-10-09T08:08:31;97676.38;;;14.66;83.81
70968;BME280;58629;48.808;8.820;2023-10-09T08:10:59;97679.97;;;14.75;84.53
70968;BME280;58629;48.808;8.820;2023-10-09T08:13:43;97686.28;;;14.82;84.32
70968;BME280;58629;48.808;8.820;2023-10-09T08:16:14;97677.25;;;14.92;84.55
70968;BME280;58629;48.808;8.820;2023-10-09T08:18:47;97681.88;;;15.04;84.96
70968;BME280;58629;48.808;8.820;2023-10-09T08:21:16;97693.13;;;15.11;84.62
70968;BME280;58629;48.808;8.820;2023-10-09T08:23:41;97694.53;;;15.16;84.66
70968;BME280;58629;48.808;8.820;2023-10-09T08:26:18;97697.66;;;15.27;85.04
70968;BME280;58629;48.808;8.820;2023-10-09T08:29:12;97691.69;;;15.35;84.29
70968;BME280;58629;48.808;8.820;2023-10-09T08:31:45;97689.66;;;15.39;83.37
70968;BME280;58629;48.808;8.820;2023-10-09T08:34:13;97695.28;;;15.45;82.89
70968;BME280;58629;48.808;8.820;2023-10-09T08:36:54;97696.38;;;15.31;85.66
70968;BME280;58629;48.808;8.820;2023-10-09T08:39:20;97692.44;;;15.36;83.86
70968;BME280;58629;48.808;8.820;2023-10-09T08:41:55;97701.03;;;15.43;84.63
70968;BME280;58629;48.808;8.820;2023-10-09T08:44:25;97698.19;;;15.50;84.91
70968;BME280;58629;48.808;8.820;2023-10-09T08:46:56;97690.50;;;15.52;84.58
70968;BME280;58629;48.808;8.820;2023-10-09T08:49:23;97688.03;;;15.58;84.21
70968;BME280;58629;48.808;8.820;2023-10-09T08:51:49;97700.19;;;15.59;83.67
70968;BME280;58629;48.808;8.820;2023-10-09T08:54:18;97690.81;;;15.54;82.11
70968;BME280;58629;48.808;8.820;2023-10-09T08:56:45;97694.88;;;15.59;81.29
70968;BME280;58629;48.808;8.820;2023-10-09T08:59:20;97697.66;;;15.68;81.32
70968;BME280;58629;48.808;8.820;2023-10-09T09:01:46;97686.66;;;15.79;80.67
70968;BME280;58629;48.808;8.820;2023-10-09T09:04:37;97693.81;;;15.82;80.33
70968;BME280;58629;48.808;8.820;2023-10-09T09:07:04;97697.34;;;15.91;79.60
70968;BME280;58629;48.808;8.820;2023-10-09T09:09:30;97695.88;;;15.90;80.46
70968;BME280;58629;48.808;8.820;2023-10-09T09:11:57;97694.06;;;16.00;80.46
70968;BME280;58629;48.808;8.820;2023-10-09T09:14:36;97695.66;;;16.10;80.45
70968;BME280;58629;48.808;8.820;2023-10-09T09:17:03;97693.94;;;16.16;80.31
70968;BME280;58629;48.808;8.820;2023-10-09T09:19:32;97700.88;;;16.26;79.66
70968;BME280;58629;48.808;8.820;2023-10-09T09:21:58;97699.50;;;16.34;79.60
70968;BME280;58629;48.808;8.820;2023-10-09T09:24:57;97700.00;;;16.41;79.51
70968;BME280;58629;48.808;8.820;2023-10-09T09:27:43;97695.53;;;16.51;79.27
70968;BME280;58629;48.808;8.820;2023-10-09T09:30:25;97700.09;;;16.63;78.85
70968;BME280;58629;48.808;8.820;2023-10-09T09:32:57;97704.03;;;16.71;78.92
70968;BME280;58629;48.808;8.820;2023-10-09T09:35:55;97698.94;;;16.86;78.90
70968;BME280;58629;48.808;8.820;2023-10-09T09:38:24;97696.53;;;17.00;78.91
70968;BME280;58629;48.808;8.820;2023-10-09T09:40:51;97705.56;;;17.15;80.73
70968;BME280;58629;48.808;8.820;2023-10-09T09:43:20;97699.47;;;17.37;80.45
70968;BME280;58629;48.808;8.820;2023-10-09T09:45:52;97703.09;;;17.64;79.39
70968;BME280;58629;48.808;8.820;2023-10-09T09:48:18;97697.41;;;17.93;77.07
70968;BME280;58629;48.808;8.820;2023-10-09T09:50:44;97700.81;;;18.24;76.53
70968;BME280;58629;48.808;8.820;2023-10-09T09:53:16;97712.16;;;18.37;77.16
70968;BME280;58629;48.808;8.820;2023-10-09T09:55:51;97711.78;;;18.48;74.53
70968;BME280;58629;48.808;8.820;2023-10-09T09:58:23;97708.84;;;18.64;73.93
70968;BME280;58629;48.808;8.820;2023-10-09T10:01:01;97708.84;;;18.82;75.08
70968;BME280;58629;48.808;8.820;2023-10-09T10:03:38;97698.25;;;18.96;73.90
70968;BME280;58629;48.808;8.820;2023-10-09T10:06:09;97693.78;;;19.21;72.72
70968;BME280;58629;48.808;8.820;2023-10-09T10:08:37;97695.56;;;19.42;66.05
70968;BME280;58629;48.808;8.820;2023-10-09T10:11:05;97700.56;;;19.67;61.93
70968;BME280;58629;48.808;8.820;2023-10-09T10:16:12;97695.22;;;20.65;53.05
70968;BME280;58629;48.808;8.820;2023-10-09T10:18:57;97694.09;;;20.95;49.45
70968;BME280;58629;48.808;8.820;2023-10-09T10:21:35;97695.75;;;21.16;47.08
70968;BME280;58629;48.808;8.820;2023-10-09T10:35:16;97692.41;;;21.80;41.90
70968;BME280;58629;48.808;8.820;2023-10-09T10:37:45;97687.75;;;21.80;40.64
70968;BME280;58629;48.808;8.820;2023-10-09T10:40:23;97679.41;;;21.78;43.43
70968;BME280;58629;48.808;8.820;2023-10-09T10:43:04;97685.16;;;21.71;43.24
70968;BME280;58629;48.808;8.820;2023-10-09T10:45:38;97679.97;;;21.68;41.96
70968;BME280;58629;48.808;8.820;2023-10-09T10:48:09;97677.94;;;21.63;40.90
70968;BME280;58629;48.808;8.820;2023-10-09T10:50:49;97687.75;;;21.66;41.61
70968;BME280;58629;48.808;8.820;2023-10-09T10:53:22;97689.34;;;21.72;40.80
70968;BME280;58629;48.808;8.820;2023-10-09T10:55:58;97687.59;;;21.84;40.36
70968;BME280;58629;48.808;8.820;2023-10-09T10:58:43;97688.50;;;21.95;40.48
70968;BME280;58629;48.808;8.820;2023-10-09T11:01:37;97679.16;;;22.11;38.30
70968;BME280;58629;48.808;8.820;2023-10-09T11:04:22;97687.97;;;22.26;37.71
70968;BME280;58629;48.808;8.820;2023-10-09T11:06:58;97681.31;;;22.41;35.19
70968;BME280;58629;48.808;8.820;2023-10-09T11:09:46;97685.03;;;22.44;35.96
70968;BME280;58629;48.808;8.820;2023-10-09T11:12:28;97695.06;;;22.43;34.88
70968;BME280;58629;48.808;8.820;2023-10-09T11:15:08;97701.59;;;22.37;32.73
70968;BME280;58629;48.808;8.820;2023-10-09T11:18:13;97699.03;;;22.28;33.44
70968;BME280;58629;48.808;8.820;2023-10-09T11:20:49;97699.97;;;22.25;32.32
70968;BME280;58629;48.808;8.820;2023-10-09T11:23:24;97699.88;;;22.19;34.03
70968;BME280;58629;48.808;8.820;2023-10-09T11:26:00;97691.94;;;22.10;32.34
70968;BME280;58629;48.808;8.820;2023-10-09T11:28:44;97688.03;;;21.97;35.88
70968;BME280;58629;48.808;8.820;2023-10-09T11:31:22;97678.19;;;21.94;36.28
70968;BME280;58629;48.808;8.820;2023-10-09T11:33:49;97682.94;;;21.84;36.04
70968;BME280;58629;48.808;8.820;2023-10-09T11:36:21;97677.19;;;21.77;36.98
70968;BME280;58629;48.808;8.820;2023-10-09T11:38:57;97674.38;;;21.71;35.32
70968;BME280;58629;48.808;8.820;2023-10-09T11:41:41;97677.81;;;21.57;38.37
70968;BME280;58629;48.808;8.820;2023-10-09T11:44:07;97663.25;;;21.49;36.54
70968;BME280;58629;48.808;8.820;2023-10-09T11:46:57;97668.44;;;21.38;37.10
70968;BME280;58629;48.808;8.820;2023-10-09T11:49:23;97662.78;;;21.36;34.88
70968;BME280;58629;48.808;8.820;2023-10-09T11:52:09;97662.03;;;21.35;34.14
70968;BME280;58629;48.808;8.820;2023-10-09T11:54:37;97663.72;;;21.33;34.94
70968;BME280;58629;48.808;8.820;2023-10-09T11:57:03;97662.59;;;21.25;35.35
70968;BME280;58629;48.808;8.820;2023-10-09T11:59:32;97655.25;;;21.25;34.27
70968;BME280;58629;48.808;8.820;2023-10-09T12:02:07;97658.41;;;21.24;36.10
70968;BME280;58629;48.808;8.820;2023-10-09T12:04:37;97645.41;;;21.22;36.09
70968;BME280;58629;48.808;8.820;2023-10-09T12:07:07;97646.34;;;21.19;37.26
70968;BME280;58629;48.808;8.820;2023-10-09T12:09:34;97640.03;;;21.22;37.15
70968;BME280;58629;48.808;8.820;2023-10-09T12:12:02;97635.19;;;21.26;38.79
70968;BME280;58629;48.808;8.820;2023-10-09T12:14:28;97625.16;;;21.27;41.37
70968;BME280;58629;48.808;8.820;2023-10-09T12:16:59;97621.53;;;21.30;42.40
70968;BME280;58629;48.808;8.820;2023-10-09T12:19:30;97623.13;;;21.36;42.37
70968;BME280;58629;48.808;8.820;2023-10-09T12:21:56;97623.75;;;21.46;41.65
70968;BME280;58629;48.808;8.820;2023-10-09T12:24:21;97617.81;;;21.56;41.06
70968;BME280;58629;48.808;8.820;2023-10-09T12:26:47;97615.34;;;21.73;38.10
70968;BME280;58629;48.808;8.820;2023-10-09T12:29:13;97626.31;;;21.84;38.72
70968;BME280;58629;48.808;8.820;2023-10-09T12:31:38;97611.97;;;21.93;39.25
70968;BME280;58629;48.808;8.820;2023-10-09T12:34:03;97614.56;;;22.02;38.20
70968;BME280;58629;48.808;8.820;2023-10-09T12:36:30;97613.34;;;22.23;40.08
70968;BME280;58629;48.808;8.820;2023-10-09T12:39:02;97608.56;;;22.32;39.27
70968;BME280;58629;48.808;8.820;2023-10-09T12:41:28;97601.38;;;22.44;37.45
70968;BME280;58629;48.808;8.820;2023-10-09T12:43:58;97599.34;;;22.59;37.43
70968;BME280;58629;48.808;8.820;2023-10-09T12:46:24;97608.47;;;22.62;35.96
70968;BME280;58629;48.808;8.820;2023-10-09T12:48:54;97611.44;;;22.64;35.20
70968;BME280;58629;48.808;8.820;2023-10-09T12:51:20;97618.28;;;22.65;36.24
70968;BME280;58629;48.808;8.820;2023-10-09T12:53:51;97622.94;;;22.64;36.19
70968;BME280;58629;48.808;8.820;2023-10-09T12:56:25;97622.38;;;22.80;33.35
70968;BME280;58629;48.808;8.820;2023-10-09T12:59:03;97613.66;;;22.91;35.26
70968;BME280;58629;48.808;8.820;2023-10-09T13:01:32;97610.16;;;22.85;35.57
70968;BME280;58629;48.808;8.820;2023-10-09T13:03:58;97612.56;;;22.77;34.65
70968;BME280;58629;48.808;8.820;2023-10-09T13:06:25;97614.19;;;22.69;34.54
70968;BME280;58629;48.808;8.820;2023-10-09T13:08:51;97606.22;;;22.60;35.98
70968;BME280;58629;48.808;8.820;2023-10-09T13:11:17;97612.16;;;22.64;36.65
70968;BME280;58629;48.808;8.820;2023-10-09T13:13:44;97604.13;;;22.70;42.83
70968;BME280;58629;48.808;8.820;2023-10-09T13:16:21;97609.59;;;22.75;36.80
70968;BME280;58629;48.808;8.820;2023-10-09T13:18:50;97603.91;;;22.73;34.31
70968;BME280;58629;48.808;8.820;2023-10-09T13:21:20;97599.13;;;22.63;37.48
70968;BME280;58629;48.808;8.820;2023-10-09T13:23:46;97607.03;;;22.46;40.63
70968;BME280;58629;48.808;8.820;2023-10-09T13:26:21;97599.00;;;22.31;42.48
70968;BME280;58629;48.808;8.820;2023-10-09T13:28:57;97601.75;;;22.17;39.95
70968;BME280;58629;48.808;8.820;2023-10-09T13:31:24;97596.69;;;22.04;36.42
70968;BME280;58629;48.808;8.820;2023-10-09T13:33:57;97597.84;;;21.98;35.85
70968;BME280;58629;48.808;8.820;2023-10-09T13:36:27;97596.19;;;21.86;37.08
70968;BME280;58629;48.808;8.820;2023-10-09T13:39:08;97598.78;;;21.80;37.10
70968;BME280;58629;48.808;8.820;2023-10-09T13:41:51;97597.50;;;21.76;37.89
70968;BME280;58629;48.808;8.820;2023-10-09T13:44:32;97591.84;;;22.08;38.53
70968;BME280;58629;48.808;8.820;2023-10-09T13:47:03;97591.28;;;22.44;38.39
70968;BME280;58629;48.808;8.820;2023-10-09T13:49:31;97592.63;;;22.75;37.80
70968;BME280;58629;48.808;8.820;2023-10-09T13:52:00;97584.28;;;22.98;40.69
70968;BME280;58629;48.808;8.820;2023-10-09T13:54:27;97579.28;;;23.17;43.00